Time;durP1;ratioP1;P1;durP2;ratioP2;P2;SDS_P1;SDS_P2;PMS_P1;PMS_P2;Temp;Humidity;BMP_temperature;BMP_pressure;BME280_temperature;BME280_humidity;BME280_pressure;Samples;Min_cycle;Max_cycle;Signal;HPM_P1;HPM_P2
2021/09/26 00:00:44;;;;;;;31.88;16.95;;;;;;;14.94;86.22;101420.25;5036666;28;20124;-69
2021/09/26 00:03:10;;;;;;;29.45;17.88;;;;;;;14.99;85.88;101417.03;5036757;28;20032;-68
2021/09/26 00:05:35;;;;;;;33.60;17.70;;;;;;;14.88;86.50;101408.84;5036436;28;20095;-68
2021/09/26 00:08:00;;;;;;;30.20;17.73;;;;;;;14.87;86.19;101409.03;5036054;28;20044;-68
2021/09/26 00:10:26;;;;;;;32.38;18.92;;;;;;;14.82;86.40;101404.44;5036335;28;20032;-68
2021/09/26 00:12:51;;;;;;;32.08;17.35;;;;;;;14.82;86.34;101401.84;5036655;28;20048;-69
2021/09/26 00:15:21;;;;;;;26.95;17.33;;;;;;;14.80;85.98;101403.84;5018786;28;20465;-70
2021/09/26 00:17:47;;;;;;;41.03;20.92;;;;;;;14.81;86.29;101405.44;5036456;28;20021;-70
2021/09/26 00:20:14;;;;;;;34.00;19.65;;;;;;;14.79;86.35;101399.63;5036557;28;20025;-69
2021/09/26 00:22:39;;;;;;;36.80;18.80;;;;;;;14.78;85.65;101399.81;5036418;28;20093;-69
2021/09/26 00:25:06;;;;;;;28.20;17.65;;;;;;;14.78;85.89;101398.03;5036633;28;20136;-69
2021/09/26 00:27:32;;;;;;;30.25;16.83;;;;;;;14.78;86.08;101399.81;5036192;28;20429;-69
2021/09/26 00:29:57;;;;;;;28.20;16.60;;;;;;;14.77;86.06;101401.63;5036017;28;20108;-69
2021/09/26 00:32:22;;;;;;;26.42;15.88;;;;;;;14.76;86.06;101400.03;5035797;28;20025;-69
2021/09/26 00:34:47;;;;;;;25.38;15.52;;;;;;;14.75;86.18;101411.44;5035648;28;20487;-71
2021/09/26 00:37:13;;;;;;;28.98;16.08;;;;;;;14.74;86.51;101407.25;5035776;28;20029;-70
2021/09/26 00:39:38;;;;;;;28.23;15.73;;;;;;;14.85;86.12;101408.44;5017944;28;20025;-69
2021/09/26 00:42:05;;;;;;;24.83;15.35;;;;;;;14.78;86.34;101405.03;5035653;28;20168;-69
2021/09/26 00:44:30;;;;;;;26.90;15.82;;;;;;;14.82;86.08;101411.47;5035571;28;20061;-69
2021/09/26 00:46:56;;;;;;;29.30;16.48;;;;;;;14.78;86.34;101413.63;5017765;28;20123;-69
2021/09/26 00:49:22;;;;;;;26.80;15.77;;;;;;;14.80;86.18;101406.44;5035532;28;20021;-68
2021/09/26 00:51:48;;;;;;;29.80;15.15;;;;;;;14.85;85.94;101411.06;5017648;28;20036;-68
2021/09/26 00:54:15;;;;;;;26.17;15.27;;;;;;;14.78;86.14;101405.03;5035293;28;20030;-68
2021/09/26 00:56:41;;;;;;;24.63;15.57;;;;;;;14.77;85.98;101399.03;5035295;28;20036;-69
2021/09/26 00:59:06;;;;;;;25.30;14.88;;;;;;;14.76;85.94;101402.66;5035202;28;20109;-69
2021/09/26 01:01:31;;;;;;;24.70;15.07;;;;;;;14.79;85.99;101402.25;5035236;28;20504;-69
2021/09/26 01:03:57;;;;;;;24.17;15.30;;;;;;;14.81;85.90;101402.03;5034167;28;20499;-69
2021/09/26 01:06:23;;;;;;;25.95;15.63;;;;;;;14.88;85.71;101395.84;5035119;28;20029;-69
2021/09/26 01:09:00;;;;;;;25.73;15.18;;;;;;;14.87;85.47;101402.06;5017282;28;20365;-69
2021/09/26 01:12:05;;;;;;;27.25;16.23;;;;;;;14.75;86.24;101406.22;5035043;28;20136;-69
2021/09/26 01:15:11;;;;;;;24.92;15.43;;;;;;;14.78;85.91;101399.81;5034840;28;20528;-69
2021/09/26 01:18:00;;;;;;;25.27;14.80;;;;;;;14.82;85.75;101399.25;5017082;28;20033;-69
2021/09/26 01:20:39;;;;;;;27.67;16.30;;;;;;;14.72;86.28;101400.63;5034900;28;20021;-69
2021/09/26 01:23:04;;;;;;;30.15;15.45;;;;;;;14.83;85.78;101397.44;5017185;28;20025;-69
2021/09/26 01:25:48;;;;;;;27.90;15.50;;;;;;;14.85;85.69;101393.63;5034743;28;20497;-69
2021/09/26 01:28:37;;;;;;;29.40;15.88;;;;;;;14.64;86.39;101386.81;5034733;28;20283;-69
2021/09/26 01:31:08;;;;;;;25.63;15.32;;;;;;;14.68;86.42;101389.81;5016939;28;20025;-69
2021/09/26 01:33:40;;;;;;;27.08;15.45;;;;;;;14.78;85.95;101390.22;5034553;28;20490;-69
2021/09/26 01:36:14;;;;;;;28.60;15.32;;;;;;;14.76;85.73;101381.00;5034646;28;20043;-69
2021/09/26 01:38:50;;;;;;;27.02;16.42;;;;;;;14.65;86.05;101379.81;5034524;28;20123;-68
2021/09/26 01:41:28;;;;;;;29.08;15.63;;;;;;;14.72;86.05;101382.41;5034520;28;20519;-68
2021/09/26 01:43:56;;;;;;;26.10;15.75;;;;;;;14.75;85.71;101379.41;5034741;28;20022;-68
2021/09/26 01:46:31;;;;;;;22.67;15.45;;;;;;;14.57;86.11;101378.19;5034322;28;20025;-68
2021/09/26 01:49:11;;;;;;;27.77;15.95;;;;;;;14.54;86.18;101388.22;5034338;28;20021;-68
2021/09/26 01:51:41;;;;;;;29.92;16.13;;;;;;;14.39;86.94;101388.34;5034217;28;20018;-68
2021/09/26 01:54:10;;;;;;;30.48;16.42;;;;;;;14.39;86.65;101381.34;5034202;28;20022;-68
2021/09/26 01:56:40;;;;;;;25.52;15.88;;;;;;;14.40;86.58;101372.53;5034191;28;20135;-68
2021/09/26 01:59:06;;;;;;;26.05;16.23;;;;;;;14.26;87.01;101370.91;5016301;28;20030;-68
2021/09/26 02:01:33;;;;;;;24.17;15.98;;;;;;;14.22;87.06;101367.13;5034210;28;20049;-68
2021/09/26 02:03:58;;;;;;;27.13;15.65;;;;;;;14.29;86.88;101365.31;5034666;28;20021;-68
2021/09/26 02:06:24;;;;;;;27.35;15.30;;;;;;;14.25;86.86;101361.53;5034230;28;20539;-68
2021/09/26 02:08:50;;;;;;;26.55;16.05;;;;;;;14.10;87.12;101363.50;5034366;28;20132;-68
2021/09/26 02:11:16;;;;;;;28.15;16.77;;;;;;;14.16;87.15;101357.50;5034361;28;20439;-68
2021/09/26 02:13:44;;;;;;;26.92;16.25;;;;;;;14.12;86.95;101357.06;5034374;28;20427;-68
2021/09/26 02:16:09;;;;;;;26.10;15.80;;;;;;;14.07;86.97;101356.06;5034055;28;20083;-68
2021/09/26 02:18:37;;;;;;;25.65;15.88;;;;;;;14.06;87.23;101346.69;5034427;28;20029;-68
2021/09/26 02:21:04;;;;;;;25.85;15.38;;;;;;;14.13;87.03;101350.09;5034187;28;20109;-68
2021/09/26 02:23:31;;;;;;;28.67;15.77;;;;;;;14.06;86.67;101344.88;5034289;28;20044;-68
2021/09/26 02:25:57;;;;;;;25.73;15.48;;;;;;;14.06;86.78;101351.88;5034584;28;20021;-69
2021/09/26 02:28:22;;;;;;;33.97;16.05;;;;;;;14.03;87.11;101344.47;5033908;28;20029;-69
2021/09/26 02:30:49;;;;;;;28.92;16.10;;;;;;;14.06;86.91;101342.28;5033975;28;20026;-69
2021/09/26 02:33:14;;;;;;;28.83;16.48;;;;;;;14.10;87.11;101348.69;5016105;28;20117;-69
2021/09/26 02:35:39;;;;;;;24.73;14.80;;;;;;;14.08;86.69;101348.09;5033819;28;20152;-69
2021/09/26 02:38:05;;;;;;;26.15;16.40;;;;;;;14.06;86.95;101352.66;5016097;28;20032;-69
2021/09/26 02:40:30;;;;;;;25.88;15.57;;;;;;;14.12;86.60;101348.47;5033669;28;20038;-69
2021/09/26 02:43:10;;;;;;;28.58;16.15;;;;;;;14.07;87.03;101349.09;5033687;28;20021;-69
2021/09/26 02:45:46;;;;;;;31.52;16.20;;;;;;;14.04;86.90;101356.47;5033769;28;20044;-69
2021/09/26 02:48:21;;;;;;;29.40;15.68;;;;;;;13.92;87.26;101362.22;5034219;28;20017;-69
2021/09/26 02:50:48;;;;;;;28.48;15.80;;;;;;;13.90;87.11;101356.44;5033602;28;20064;-69
2021/09/26 02:53:15;;;;;;;29.05;16.70;;;;;;;13.96;87.22;101347.06;5015677;28;20060;-69
2021/09/26 02:55:43;;;;;;;26.90;16.10;;;;;;;13.94;87.15;101359.44;5015727;28;20036;-69
2021/09/26 02:58:08;;;;;;;27.92;15.43;;;;;;;13.91;87.01;101358.03;5015831;28;20595;-69
2021/09/26 03:00:40;;;;;;;29.35;15.73;;;;;;;13.77;87.70;101364.16;5033264;28;20049;-69
2021/09/26 03:03:11;;;;;;;25.98;15.77;;;;;;;13.84;87.35;101356.38;5033373;28;20025;-69
2021/09/26 03:05:38;;;;;;;26.80;15.57;;;;;;;13.87;87.04;101356.03;5015687;28;20029;-69
2021/09/26 03:08:05;;;;;;;24.80;14.95;;;;;;;13.86;87.01;101359.59;5033381;28;20036;-69
2021/09/26 03:10:30;;;;;;;25.92;15.85;;;;;;;13.81;87.29;101361.97;5015883;28;20072;-69
2021/09/26 03:12:56;;;;;;;26.77;15.52;;;;;;;13.79;87.37;101363.97;5033288;28;20080;-69
2021/09/26 03:15:21;;;;;;;28.60;15.68;;;;;;;13.70;87.61;101360.75;5033281;28;20107;-69
2021/09/26 03:17:47;;;;;;;29.35;15.95;;;;;;;13.73;87.87;101360.34;5033189;28;20033;-69
2021/09/26 03:20:12;;;;;;;28.50;16.23;;;;;;;13.80;87.10;101358.56;5033194;28;20515;-69
2021/09/26 03:22:37;;;;;;;27.77;16.05;;;;;;;13.82;87.50;101359.19;5033054;28;20361;-68
2021/09/26 03:25:03;;;;;;;27.98;15.50;;;;;;;13.85;87.08;101365.81;5033019;28;20024;-67
2021/09/26 03:27:28;;;;;;;26.23;14.93;;;;;;;13.80;87.01;101361.16;5032907;28;20033;-68
2021/09/26 03:29:53;;;;;;;25.77;15.00;;;;;;;13.88;86.87;101363.59;5033127;28;20017;-68
2021/09/26 03:32:19;;;;;;;27.67;15.55;;;;;;;13.90;86.74;101359.03;5033099;28;20026;-68
2021/09/26 03:34:44;;;;;;;25.45;15.07;;;;;;;13.90;86.22;101348.63;5032959;28;20538;-69
2021/09/26 03:37:09;;;;;;;23.88;15.00;;;;;;;13.92;86.67;101340.63;5033584;28;20034;-69
2021/09/26 03:39:36;;;;;;;25.73;15.20;;;;;;;13.87;86.75;101341.22;5033099;28;20448;-67
2021/09/26 03:42:01;;;;;;;25.40;14.80;;;;;;;13.85;86.76;101332.03;5032997;28;20029;-70
2021/09/26 03:44:27;;;;;;;29.63;15.35;;;;;;;13.86;86.81;101331.81;5032903;28;20487;-70
2021/09/26 03:46:53;;;;;;;26.45;15.15;;;;;;;13.90;86.58;101334.84;5032935;28;20030;-70
2021/09/26 03:49:18;;;;;;;25.38;14.40;;;;;;;13.91;86.48;101329.44;5032912;28;20416;-70
2021/09/26 03:51:44;;;;;;;24.38;14.98;;;;;;;14.02;86.21;101328.09;5033209;28;20029;-70
2021/09/26 03:54:10;;;;;;;23.88;14.73;;;;;;;14.05;85.83;101325.09;5032823;28;20469;-70
2021/09/26 03:56:35;;;;;;;24.85;14.50;;;;;;;13.97;86.46;101315.66;5032813;28;20028;-69
2021/09/26 03:59:01;;;;;;;24.63;15.27;;;;;;;14.04;86.05;101307.09;5032861;28;20055;-68
2021/09/26 04:01:27;;;;;;;23.50;14.65;;;;;;;14.16;85.61;101313.31;5032686;28;20058;-69
2021/09/26 04:03:52;;;;;;;23.83;14.15;;;;;;;14.15;85.69;101312.50;5032782;28;20461;-69
2021/09/26 04:06:17;;;;;;;23.13;14.25;;;;;;;14.13;85.87;101304.13;5032692;28;20104;-69
2021/09/26 04:08:43;;;;;;;24.92;14.32;;;;;;;14.15;85.69;101304.69;5032745;28;20099;-69
2021/09/26 04:11:09;;;;;;;25.90;15.60;;;;;;;14.13;85.75;101309.31;5032749;28;20108;-69
2021/09/26 04:13:35;;;;;;;28.35;15.07;;;;;;;13.91;86.69;101305.25;5032589;28;20061;-69
2021/09/26 04:16:00;;;;;;;27.25;15.80;;;;;;;13.77;86.89;101307.81;5014858;28;20455;-69
2021/09/26 04:18:25;;;;;;;26.02;15.18;;;;;;;13.70;87.15;101306.22;5032648;28;20400;-69
2021/09/26 04:20:50;;;;;;;25.40;15.40;;;;;;;13.59;87.68;101311.94;5032620;28;20060;-69
2021/09/26 04:23:16;;;;;;;27.00;15.27;;;;;;;13.73;87.15;101318.81;5032582;28;20025;-69
2021/09/26 04:25:41;;;;;;;24.88;14.70;;;;;;;13.73;86.98;101316.22;5032787;28;20029;-69
2021/09/26 04:28:06;;;;;;;25.58;14.50;;;;;;;13.72;86.76;101314.59;5032518;28;20025;-69
2021/09/26 04:30:33;;;;;;;27.60;14.88;;;;;;;13.67;86.79;101309.19;5032559;28;20037;-69
2021/09/26 04:32:58;;;;;;;28.75;15.55;;;;;;;13.62;87.18;101311.56;5032470;28;20075;-69
2021/09/26 04:35:23;;;;;;;25.23;15.48;;;;;;;13.63;87.13;101319.16;5014681;28;20480;-69
2021/09/26 04:37:52;;;;;;;24.10;14.88;;;;;;;13.61;86.99;101317.72;5032928;28;20074;-69
2021/09/26 04:40:17;;;;;;;24.77;15.40;;;;;;;13.55;87.54;101316.72;5035462;28;20026;-69
2021/09/26 04:42:42;;;;;;;25.80;15.25;;;;;;;13.62;87.09;101319.34;5035840;28;20535;-70
2021/09/26 04:45:09;;;;;;;21.45;14.63;;;;;;;13.66;86.85;101321.34;5035901;28;20017;-69
2021/09/26 04:47:35;;;;;;;28.05;15.52;;;;;;;13.70;86.87;101317.38;5018126;28;20072;-69
2021/09/26 04:50:01;;;;;;;26.98;15.30;;;;;;;13.63;87.06;101324.34;5035813;28;20033;-69
2021/09/26 04:52:26;;;;;;;24.80;15.23;;;;;;;13.76;86.51;101319.22;5017966;28;20427;-69
2021/09/26 04:54:51;;;;;;;23.08;14.60;;;;;;;13.83;86.54;101319.22;5035660;28;20037;-68
2021/09/26 04:57:17;;;;;;;26.73;15.55;;;;;;;13.79;86.42;101318.03;5035654;28;20033;-68
2021/09/26 04:59:42;;;;;;;25.70;14.48;;;;;;;13.89;85.97;101318.44;5035457;28;20123;-68
2021/09/26 05:02:07;;;;;;;23.50;13.95;;;;;;;13.82;86.05;101311.63;5036143;28;20034;-69
2021/09/26 05:04:32;;;;;;;23.38;14.98;;;;;;;13.91;86.19;101319.06;5035545;28;20032;-68
2021/09/26 05:06:58;;;;;;;26.27;14.93;;;;;;;13.98;85.77;101316.47;5017663;28;20029;-68
2021/09/26 05:09:23;;;;;;;24.38;14.63;;;;;;;14.04;86.00;101331.28;5035497;28;20033;-68
2021/09/26 05:11:49;;;;;;;23.80;14.52;;;;;;;14.09;85.29;101330.69;5035395;28;20025;-69
2021/09/26 05:14:14;;;;;;;20.65;13.48;;;;;;;14.14;85.04;101320.50;5017439;28;20052;-68
2021/09/26 05:16:39;;;;;;;20.70;13.50;;;;;;;14.17;84.89;101333.09;5035270;28;20029;-68
2021/09/26 05:19:05;;;;;;;24.38;14.18;;;;;;;14.20;85.16;101337.91;5035516;28;20021;-69
2021/09/26 05:21:30;;;;;;;21.58;13.82;;;;;;;14.10;84.83;101338.31;5017377;28;20076;-69
2021/09/26 05:23:56;;;;;;;23.08;14.05;;;;;;;14.04;85.46;101333.06;5035702;28;20025;-68
2021/09/26 05:26:21;;;;;;;22.75;13.55;;;;;;;14.15;85.36;101332.50;5035642;28;20025;-68
2021/09/26 05:28:46;;;;;;;21.83;13.38;;;;;;;14.26;85.03;101329.31;5035584;28;20061;-68
2021/09/26 05:31:12;;;;;;;23.85;13.48;;;;;;;14.32;84.60;101330.34;5035087;28;20039;-69
2021/09/26 05:33:37;;;;;;;25.17;13.73;;;;;;;14.33;84.32;101327.53;5017156;28;20021;-69
2021/09/26 05:36:03;;;;;;;23.75;13.52;;;;;;;14.10;85.17;101322.72;5034964;28;20033;-68
2021/09/26 05:38:29;;;;;;;22.85;14.02;;;;;;;14.23;84.98;101327.13;5034844;28;20025;-69
2021/09/26 05:40:54;;;;;;;22.67;13.75;;;;;;;14.23;84.97;101325.31;5034859;28;20468;-69
2021/09/26 05:43:19;;;;;;;23.75;14.07;;;;;;;14.31;84.64;101328.75;5034792;28;20404;-69
2021/09/26 05:45:44;;;;;;;21.23;13.38;;;;;;;14.37;84.53;101333.16;5017025;28;20120;-68
2021/09/26 05:48:10;;;;;;;22.30;13.43;;;;;;;14.43;84.26;101340.94;5034760;28;20033;-68
2021/09/26 05:50:35;;;;;;;22.58;13.30;;;;;;;14.42;84.16;101347.16;5016351;28;20472;-69
2021/09/26 05:53:01;;;;;;;19.00;13.13;;;;;;;14.47;84.83;101338.75;5034558;28;20021;-69
2021/09/26 05:55:26;;;;;;;24.10;13.35;;;;;;;14.49;84.18;101341.94;5034920;28;20029;-69
2021/09/26 05:57:51;;;;;;;22.55;13.80;;;;;;;14.34;84.65;101323.94;5034779;28;20052;-69
2021/09/26 06:00:17;;;;;;;22.80;13.50;;;;;;;14.42;85.05;101326.34;5035977;28;20049;-70
2021/09/26 06:02:43;;;;;;;21.50;13.65;;;;;;;14.54;84.28;101325.78;5034603;28;20104;-69
2021/09/26 06:05:10;;;;;;;23.70;13.73;;;;;;;14.56;84.20;101323.81;5034307;28;20028;-67
2021/09/26 06:07:36;;;;;;;21.85;13.38;;;;;;;14.61;84.17;101321.38;5034379;28;20041;-67
2021/09/26 06:10:04;;;;;;;22.20;13.55;;;;;;;14.53;84.73;101325.00;5016568;28;20068;-68
2021/09/26 06:12:29;;;;;;;20.95;13.52;;;;;;;14.57;84.08;101328.00;5016513;28;20435;-69
2021/09/26 06:14:54;;;;;;;25.35;13.82;;;;;;;14.53;84.58;101329.38;5034161;28;20098;-69
2021/09/26 06:17:20;;;;;;;19.63;13.68;;;;;;;14.44;84.91;101334.75;5034057;28;20388;-69
2021/09/26 06:19:45;;;;;;;21.48;13.63;;;;;;;14.43;84.97;101334.94;5034117;28;20361;-69
2021/09/26 06:22:10;;;;;;;21.10;13.65;;;;;;;14.57;84.51;101335.78;5016246;28;20041;-69
2021/09/26 06:24:35;;;;;;;20.90;13.40;;;;;;;14.44;85.05;101337.38;5034196;28;20024;-69
2021/09/26 06:27:01;;;;;;;23.90;14.25;;;;;;;14.37;85.43;101333.94;5034342;28;20018;-70
2021/09/26 06:29:27;;;;;;;21.05;14.20;;;;;;;14.50;85.35;101332.34;5034480;28;20116;-69
2021/09/26 06:31:53;;;;;;;23.27;13.60;;;;;;;14.63;84.81;101337.59;5034728;28;20097;-69
2021/09/26 06:34:18;;;;;;;22.48;13.40;;;;;;;14.75;84.00;101341.19;5035094;28;20111;-69
2021/09/26 06:36:43;;;;;;;22.10;13.55;;;;;;;14.65;84.23;101339.00;5033985;28;20025;-68
2021/09/26 06:39:10;;;;;;;20.48;13.63;;;;;;;14.71;84.39;101349.59;5033679;28;20021;-68
2021/09/26 06:41:35;;;;;;;22.73;13.35;;;;;;;14.85;83.92;101346.81;5016916;28;20495;-69
2021/09/26 06:44:03;;;;;;;24.15;13.57;;;;;;;14.66;84.60;101342.41;5034394;28;20066;-70
2021/09/26 06:46:29;;;;;;;24.75;13.77;;;;;;;14.77;84.93;101339.19;5017189;28;20079;-70
2021/09/26 06:52:17;;;;;;;21.90;13.02;;;;;;;15.13;83.54;101332.72;5034261;28;20391;-70
2021/09/26 06:54:43;;;;;;;19.33;12.77;;;;;;;15.19;83.23;101333.72;5033871;28;20026;-70
2021/09/26 06:57:09;;;;;;;21.23;12.90;;;;;;;15.34;82.58;101336.91;5033563;28;20091;-70
2021/09/26 06:59:35;;;;;;;22.60;13.02;;;;;;;15.33;82.85;101348.31;5015900;28;20036;-70
2021/09/26 07:02:00;;;;;;;23.13;13.15;;;;;;;15.40;82.68;101340.50;5032792;28;20025;-69
2021/09/26 07:04:25;;;;;;;22.42;14.02;;;;;;;15.43;82.51;101347.91;5033316;28;20024;-69
2021/09/26 07:06:51;;;;;;;22.20;12.98;;;;;;;15.49;82.50;101345.28;5033266;28;20108;-70
2021/09/26 07:09:17;;;;;;;31.35;13.68;;;;;;;15.25;82.99;101353.75;5033527;28;20021;-69
2021/09/26 07:11:43;;;;;;;25.05;13.07;;;;;;;15.26;83.45;101356.16;5033321;28;20029;-70
2021/09/26 07:14:08;;;;;;;23.30;13.75;;;;;;;15.33;83.24;101362.16;5015251;28;20026;-70
2021/09/26 07:16:33;;;;;;;21.23;13.23;;;;;;;15.40;83.06;101361.34;5015285;28;20039;-70
2021/09/26 07:18:59;;;;;;;25.38;13.68;;;;;;;15.35;83.11;101370.53;5033381;28;20083;-69
2021/09/26 07:21:24;;;;;;;20.80;13.68;;;;;;;15.47;82.90;101370.72;5033077;28;20490;-69
2021/09/26 07:23:49;;;;;;;21.65;13.68;;;;;;;15.45;83.34;101377.13;5033119;28;20087;-69
2021/09/26 07:26:15;;;;;;;21.23;13.85;;;;;;;15.61;82.99;101379.28;5033179;28;20468;-68
2021/09/26 07:28:40;;;;;;;21.33;13.98;;;;;;;15.56;83.04;101376.50;5033953;28;20091;-69
2021/09/26 07:31:05;;;;;;;26.13;15.13;;;;;;;15.60;82.84;101380.31;5034256;28;20063;-69
2021/09/26 07:33:31;;;;;;;23.17;13.80;;;;;;;15.70;82.59;101383.28;5033620;28;20053;-70
2021/09/26 07:35:56;;;;;;;23.67;13.73;;;;;;;15.69;82.52;101381.72;5033127;28;20464;-71
2021/09/26 07:38:21;;;;;;;22.50;14.10;;;;;;;15.71;82.58;101376.31;5034129;28;20104;-68
2021/09/26 07:40:47;;;;;;;23.55;14.15;;;;;;;15.99;81.85;101376.75;5037317;28;20029;-69
2021/09/26 07:43:12;;;;;;;20.73;13.80;;;;;;;16.54;79.31;101368.41;5034362;28;20021;-70
2021/09/26 07:45:38;;;;;;;27.42;14.63;;;;;;;16.24;80.99;101363.78;5034067;28;20357;-71
2021/09/26 07:48:03;;;;;;;21.42;14.10;;;;;;;16.21;80.96;101363.41;5033850;28;20032;-73
2021/09/26 07:50:29;;;;;;;20.70;12.93;;;;;;;16.22;81.05;101363.19;5033388;28;20061;-71
2021/09/26 07:52:55;;;;;;;23.33;13.23;;;;;;;16.39;80.66;101365.31;5033646;28;20032;-70
2021/09/26 07:55:20;;;;;;;20.42;13.60;;;;;;;16.51;80.82;101357.59;5016738;28;20396;-69
2021/09/26 07:57:46;;;;;;;23.38;13.32;;;;;;;16.68;80.25;101353.44;5033028;28;20029;-69
2021/09/26 08:00:13;;;;;;;26.67;14.20;;;;;;;16.78;79.46;101361.66;5032982;28;20045;-69
2021/09/26 08:02:39;;;;;;;21.65;13.57;;;;;;;16.80;79.22;101364.03;5033018;28;20025;-70
2021/09/26 08:05:05;;;;;;;24.27;14.70;;;;;;;16.64;79.78;101365.34;5018154;28;20413;-69
2021/09/26 08:07:32;;;;;;;22.92;14.23;;;;;;;16.76;79.84;101370.66;5015783;28;20021;-68
2021/09/26 08:09:58;;;;;;;24.67;14.13;;;;;;;16.81;79.69;101374.25;5032695;28;20468;-69
2021/09/26 08:12:23;;;;;;;26.98;15.80;;;;;;;16.67;79.80;101375.34;5033016;28;20025;-69
2021/09/26 08:14:48;;;;;;;25.02;14.02;;;;;;;16.60;80.13;101387.63;5037451;28;20018;-69
2021/09/26 08:17:14;;;;;;;25.40;15.15;;;;;;;16.61;80.38;101402.28;5019479;28;20029;-71
2021/09/26 08:19:39;;;;;;;25.92;15.48;;;;;;;16.65;80.63;101400.84;5036338;28;20101;-71
2021/09/26 08:22:06;;;;;;;24.30;14.98;;;;;;;16.66;80.42;101405.88;5036550;28;20057;-70
2021/09/26 08:24:32;;;;;;;26.10;14.90;;;;;;;16.61;81.08;101410.13;5036278;28;20022;-70
2021/09/26 08:26:58;;;;;;;26.23;15.60;;;;;;;16.69;80.83;101407.25;5036363;28;20033;-70
2021/09/26 08:29:23;;;;;;;23.90;15.32;;;;;;;16.65;81.00;101406.88;5036160;28;20326;-70
2021/09/26 08:34:38;;;;;;;25.92;14.50;;;;;;;17.18;79.93;101407.50;5034867;28;20500;-44
2021/09/26 08:37:03;;;;;;;23.70;14.13;;;;;;;17.30;79.20;101408.38;5036082;28;20029;-44
2021/09/26 08:39:29;;;;;;;21.35;13.57;;;;;;;17.54;79.06;101409.31;5036370;28;20069;-44
2021/09/26 08:41:55;;;;;;;23.42;14.55;;;;;;;17.73;78.26;101403.09;5036268;28;20407;-43
2021/09/26 08:44:26;;;;;;;24.38;13.70;;;;;;;18.39;75.89;101409.31;5036241;28;20025;-43
2021/09/26 08:46:53;;;;;;;21.88;13.38;;;;;;;19.35;73.36;101411.81;5035865;28;20488;-44
2021/09/26 08:49:19;;;;;;;25.42;13.88;;;;;;;20.09;69.91;101414.59;5036044;28;20104;-43
2021/09/26 08:51:46;;;;;;;21.25;13.00;;;;;;;19.89;71.10;101408.97;5036153;28;20038;-44
2021/09/26 08:54:12;;;;;;;22.40;13.07;;;;;;;19.57;71.57;101406.75;5035623;28;20021;-44
2021/09/26 08:56:38;;;;;;;24.98;13.75;;;;;;;19.72;71.16;101414.16;5035858;28;20108;-43
2021/09/26 08:59:04;;;;;;;19.00;13.32;;;;;;;19.78;70.94;101414.03;5035658;28;20028;-43
2021/09/26 09:01:29;;;;;;;23.60;12.75;;;;;;;19.71;71.29;101416.00;5035543;28;20029;-43
2021/09/26 09:03:54;;;;;;;19.75;13.80;;;;;;;20.03;70.22;101412.91;5036116;28;20108;-44
2021/09/26 09:06:36;;;;;;;22.05;13.38;;;;;;;20.15;69.74;101410.25;5035528;28;20029;-43
2021/09/26 09:09:07;;;;;;;19.65;12.93;;;;;;;20.48;68.41;101406.88;5034501;28;20021;-43
2021/09/26 09:11:32;;;;;;;22.50;13.10;;;;;;;19.93;70.85;101400.41;5035239;28;20029;-43
2021/09/26 09:14:00;;;;;;;19.15;13.35;;;;;;;19.84;70.66;101401.81;5035678;28;20083;-43
2021/09/26 09:16:32;;;;;;;18.52;13.27;;;;;;;19.87;70.78;101401.34;5035411;28;20361;-44
2021/09/26 09:18:57;;;;;;;22.20;13.23;;;;;;;19.53;71.98;101410.84;5036038;28;20040;-43
2021/09/26 09:21:33;;;;;;;22.40;13.45;;;;;;;19.33;73.16;101413.84;5035507;28;20029;-44
2021/09/26 09:24:10;;;;;;;19.38;13.68;;;;;;;19.09;74.18;101418.31;5035217;28;20060;-44
2021/09/26 09:26:37;;;;;;;19.17;13.57;;;;;;;18.88;74.84;101412.63;5035127;28;20444;-43
2021/09/26 09:29:04;;;;;;;20.83;13.80;;;;;;;19.02;74.49;101407.97;5035182;28;20021;-44
2021/09/26 09:31:30;;;;;;;20.38;13.80;;;;;;;19.19;74.64;101408.06;5035227;28;20029;-44
2021/09/26 09:33:56;;;;;;;21.60;13.80;;;;;;;19.44;73.72;101413.03;5033704;28;20040;-43
2021/09/26 09:36:24;;;;;;;19.35;12.63;;;;;;;19.65;73.06;101411.69;5034957;28;20050;-44
2021/09/26 09:38:53;;;;;;;19.35;13.18;;;;;;;19.95;72.11;101415.91;5035010;28;20476;-43
2021/09/26 09:41:42;;;;;;;19.13;13.45;;;;;;;20.90;69.54;101417.00;5035324;28;20049;-44
2021/09/26 09:44:13;;;;;;;20.20;12.50;;;;;;;22.19;64.74;101426.28;5035579;28;20028;-43
2021/09/26 09:46:41;;;;;;;22.25;13.13;;;;;;;21.59;65.61;101420.06;5035167;28;20029;-43
2021/09/26 09:49:14;;;;;;;20.23;12.70;;;;;;;20.54;68.71;101432.19;5034874;28;20096;-44
2021/09/26 09:51:48;;;;;;;18.85;13.18;;;;;;;20.19;70.57;101429.72;5035112;28;20033;-43
2021/09/26 09:54:14;;;;;;;19.52;13.63;;;;;;;19.79;71.95;101430.53;5034613;28;20380;-43
2021/09/26 09:56:42;;;;;;;24.42;13.32;;;;;;;20.14;71.25;101433.06;5034549;28;20025;-44
2021/09/26 09:59:07;;;;;;;20.77;13.38;;;;;;;20.04;71.63;101430.25;5034418;28;20025;-43
2021/09/26 10:01:35;;;;;;;20.77;13.20;;;;;;;20.26;70.91;101435.63;5034362;28;20037;-43
2021/09/26 10:04:02;;;;;;;23.95;13.23;;;;;;;20.88;69.59;101429.59;5034399;28;20376;-45
2021/09/26 10:06:27;;;;;;;19.33;12.73;;;;;;;21.32;67.40;101419.16;5034343;28;20476;-44
2021/09/26 10:08:55;;;;;;;21.45;13.20;;;;;;;22.12;64.71;101424.84;5034288;28;20037;-44
2021/09/26 10:11:21;;;;;;;18.45;12.52;;;;;;;22.84;62.12;101427.06;5035053;28;20175;-44
2021/09/26 10:13:47;;;;;;;20.63;12.93;;;;;;;23.55;60.45;101420.63;5034731;28;20079;-44
2021/09/26 10:16:14;;;;;;;19.15;12.43;;;;;;;23.58;59.77;101423.53;5034276;28;20087;-44
2021/09/26 10:18:42;;;;;;;16.92;12.20;;;;;;;23.97;58.45;101419.72;5034735;28;20091;-44
2021/09/26 10:21:08;;;;;;;22.88;11.48;;;;;;;23.97;58.15;101425.00;5034475;28;20451;-43
2021/09/26 10:23:34;;;;;;;19.60;12.18;;;;;;;24.50;56.44;101429.03;5034297;28;20100;-44
2021/09/26 10:26:00;;;;;;;19.83;12.43;;;;;;;24.60;56.61;101428.25;5034397;28;20408;-44
2021/09/26 10:28:29;;;;;;;19.25;11.82;;;;;;;24.95;57.33;101426.63;5034135;28;20480;-44
2021/09/26 10:31:01;;;;;;;17.23;12.48;;;;;;;23.73;58.45;101432.56;5032784;28;20476;-44
2021/09/26 10:33:27;;;;;;;18.55;12.68;;;;;;;22.67;62.56;101431.66;5033886;28;20128;-43
2021/09/26 10:35:55;;;;;;;18.10;12.13;;;;;;;22.90;62.06;101422.63;5033719;28;20104;-44
2021/09/26 10:38:22;;;;;;;17.85;12.60;;;;;;;23.37;61.08;101430.56;5033850;28;20017;-44
2021/09/26 10:40:48;;;;;;;18.90;12.95;;;;;;;23.35;60.34;101427.38;5033881;28;20035;-45
2021/09/26 10:43:17;;;;;;;18.80;12.75;;;;;;;24.25;59.00;101426.34;5034186;28;20017;-43
2021/09/26 10:45:42;;;;;;;19.10;13.65;;;;;;;23.82;58.85;101428.38;5033831;28;20025;-44
2021/09/26 10:48:08;;;;;;;17.10;12.73;;;;;;;24.19;58.51;101420.28;5033805;28;20043;-45
2021/09/26 10:50:39;;;;;;;20.85;12.20;;;;;;;24.88;56.14;101420.81;5033918;28;20076;-44
2021/09/26 10:53:13;;;;;;;18.83;12.10;;;;;;;25.71;55.50;101422.13;5033719;28;20384;-45
2021/09/26 10:55:42;;;;;;;19.58;13.48;;;;;;;24.67;56.35;101426.13;5034052;28;20391;-45
2021/09/26 10:58:11;;;;;;;14.65;11.07;;;;;;;23.97;58.78;101415.25;5032426;28;20029;-45
2021/09/26 11:00:56;;;;;;;15.45;11.52;;;;;;;23.61;59.65;101430.13;5033913;28;20079;-44
2021/09/26 11:03:34;;;;;;;16.65;11.95;;;;;;;23.16;60.78;101436.78;5033854;28;20052;-44
2021/09/26 11:06:22;;;;;;;17.77;12.70;;;;;;;23.18;61.18;101432.84;5033794;28;20044;-44
2021/09/26 11:08:52;;;;;;;17.70;12.27;;;;;;;23.51;59.95;101425.63;5033850;28;20029;-45
2021/09/26 11:11:46;;;;;;;17.63;13.48;;;;;;;23.85;58.75;101418.13;5034472;28;20341;-44
2021/09/26 11:14:13;;;;;;;21.15;13.23;;;;;;;24.62;56.81;101415.56;5028192;28;20030;-44
2021/09/26 11:16:49;;;;;;;19.30;12.52;;;;;;;25.27;55.13;101418.38;5033836;28;20025;-44